Waukon Junction, Iowa
Current Conditions -  °F | °C
As of 4:55 PM on Saturday 25 Oct 2014 (Local Time) from KPDC Reporting Station
Clear Clear  
Wind Chill: 66°   Ceiling: Unl
Heat Index: 66°   Visibility: 10mi
Dew Point: 24°   Wind: 14mph
Humidity: 20%   Direction: 280°W
Pressure: 30"   Gusts: 17mph
Location:  43.1584°N, 91.2436°W
Report Text: KPDC 252155Z AUTO 28012G15KT 10SM CLR 19/M04 A3000 RMK AO2 T01901044
Loading
Personal Weather Stations






























Interactive Weather Map
Tropical Storm Tracking
New forecast layout! Learn more

10-Day Weather Forecast

Advertisements
Track Severe Weather on mobile